Time;durP1;ratioP1;P1;durP2;ratioP2;P2;SDS_P1;SDS_P2;PMS_P1;PMS_P2;Temp;Humidity;BMP_temperature;BMP_pressure;BME280_temperature;BME280_humidity;BME280_pressure;Samples;Min_cycle;Max_cycle;Signal;HPM_P1;HPM_P2
2022/10/26 00:00:52;;;;;;;2.72;2.53;;;14.70;99.90;;;;;;5048255;28;20030;-89
2022/10/26 00:03:18;;;;;;;2.13;2.03;;;14.70;99.90;;;;;;5064667;28;20057;-88
2022/10/26 00:05:44;;;;;;;6.18;2.85;;;14.70;99.90;;;;;;5064762;28;20029;-90
2022/10/26 00:08:10;;;;;;;2.60;2.40;;;14.70;99.90;;;;;;5065797;28;20033;-89
2022/10/26 00:10:37;;;;;;;3.63;2.38;;;14.70;99.90;;;;;;5064846;28;20035;-89
2022/10/26 00:13:04;;;;;;;3.35;2.55;;;14.70;99.90;;;;;;5047892;28;20104;-88
2022/10/26 00:15:30;;;;;;;3.55;2.90;;;14.70;99.90;;;;;;5047577;28;20044;-89
2022/10/26 00:17:57;;;;;;;4.47;3.63;;;14.60;99.90;;;;;;5044677;28;20097;-89
2022/10/26 00:20:22;;;;;;;3.53;3.20;;;14.60;99.90;;;;;;5041940;28;20025;-90
2022/10/26 00:22:48;;;;;;;2.60;2.40;;;14.70;99.90;;;;;;5048070;28;20116;-89
2022/10/26 00:25:14;;;;;;;4.43;2.38;;;14.70;99.90;;;;;;5048314;28;20033;-89
2022/10/26 00:27:40;;;;;;;2.65;2.35;;;14.60;99.90;;;;;;5064499;28;20395;-89
2022/10/26 00:30:06;;;;;;;3.15;2.45;;;14.60;99.90;;;;;;5048145;28;20033;-89
2022/10/26 00:32:33;;;;;;;7.18;3.53;;;14.60;99.90;;;;;;5064635;28;20068;-89
2022/10/26 00:34:59;;;;;;;4.35;2.85;;;14.60;99.90;;;;;;5064463;28;20024;-90
2022/10/26 00:37:25;;;;;;;4.03;2.65;;;14.60;99.90;;;;;;5047841;28;20121;-90
2022/10/26 00:39:52;;;;;;;3.13;2.40;;;14.60;99.90;;;;;;5064700;28;20081;-89
2022/10/26 00:42:20;;;;;;;5.32;3.33;;;14.60;99.90;;;;;;5064369;28;20075;-90
2022/10/26 00:44:45;;;;;;;4.60;2.63;;;14.60;99.90;;;;;;5047737;28;20040;-91
2022/10/26 00:47:18;;;;;;;3.55;2.08;;;14.60;99.90;;;;;;5065763;28;20036;-88
2022/10/26 00:49:51;;;;;;;6.22;3.20;;;14.60;99.90;;;;;;5058421;28;20468;-89
2022/10/26 00:52:18;;;;;;;7.07;3.25;;;14.60;99.90;;;;;;5045728;28;20033;-89
2022/10/26 00:54:44;;;;;;;4.50;2.55;;;14.60;99.90;;;;;;5059876;28;20044;-89
2022/10/26 00:57:13;;;;;;;3.40;2.72;;;14.60;99.90;;;;;;5057500;28;20033;-90
2022/10/26 00:59:40;;;;;;;9.25;2.55;;;14.60;99.90;;;;;;5064955;28;20021;-90
2022/10/26 01:02:06;;;;;;;3.83;2.10;;;14.50;99.90;;;;;;5068044;28;20072;-89
2022/10/26 01:04:33;;;;;;;3.20;2.67;;;14.50;99.90;;;;;;5051255;28;20033;-90
2022/10/26 01:07:02;;;;;;;6.72;2.17;;;14.50;99.90;;;;;;5067734;28;20092;-89
2022/10/26 01:09:28;;;;;;;2.22;2.13;;;14.30;99.90;;;;;;5068906;28;20025;-90
2022/10/26 01:11:54;;;;;;;4.65;3.42;;;14.50;99.90;;;;;;5067556;28;20036;-90
2022/10/26 01:14:20;;;;;;;2.72;2.47;;;14.50;99.90;;;;;;5067697;28;20029;-90
2022/10/26 01:17:17;;;;;;;2.50;2.30;;;14.50;99.90;;;;;;5050974;28;20028;-89
2022/10/26 01:20:12;;;;;;;6.78;2.10;;;14.50;99.90;;;;;;5064278;28;20025;-90
2022/10/26 01:22:50;;;;;;;3.95;3.15;;;14.50;99.90;;;;;;5047546;28;20037;-90
2022/10/26 01:25:33;;;;;;;5.18;2.85;;;14.40;99.90;;;;;;5047465;28;20033;-89
2022/10/26 01:28:01;;;;;;;3.78;2.97;;;14.50;99.90;;;;;;5072641;28;20472;-90
2022/10/26 01:30:41;;;;;;;3.60;2.42;;;14.40;99.90;;;;;;5067454;28;20025;-89
2022/10/26 01:33:36;;;;;;;3.63;3.33;;;14.50;99.90;;;;;;5067487;28;20037;-89
2022/10/26 01:36:11;;;;;;;7.30;3.67;;;14.40;99.90;;;;;;5067342;28;20029;-89
2022/10/26 01:39:11;;;;;;;7.68;3.63;;;14.40;99.90;;;;;;5067326;28;20032;-89
2022/10/26 01:41:57;;;;;;;6.32;3.63;;;14.40;99.90;;;;;;5067472;28;20025;-90
2022/10/26 01:44:40;;;;;;;3.00;2.70;;;14.40;99.90;;;;;;5067346;28;20052;-90
2022/10/26 01:47:10;;;;;;;4.55;2.90;;;14.40;99.90;;;;;;5050474;28;20119;-90
2022/10/26 01:49:40;;;;;;;5.00;4.45;;;14.40;99.90;;;;;;5067281;28;20029;-90
2022/10/26 01:52:10;;;;;;;7.38;3.67;;;14.40;99.90;;;;;;5067049;28;20442;-89
2022/10/26 01:54:36;;;;;;;3.83;2.95;;;14.40;99.90;;;;;;5050492;28;20025;-89
2022/10/26 01:57:06;;;;;;;5.10;3.67;;;14.40;99.90;;;;;;5050180;28;20028;-88
2022/10/26 01:59:38;;;;;;;5.30;4.30;;;14.40;99.90;;;;;;5050370;28;20033;-90
2022/10/26 02:02:26;;;;;;;3.78;2.88;;;14.40;99.90;;;;;;5067027;28;20112;-89
2022/10/26 02:05:00;;;;;;;5.53;3.75;;;14.40;99.90;;;;;;5050079;28;20040;-89
2022/10/26 02:07:44;;;;;;;5.55;3.97;;;14.40;99.90;;;;;;5050251;28;20037;-90
2022/10/26 02:10:35;;;;;;;10.70;3.22;;;14.30;99.90;;;;;;5066628;28;20032;-90
2022/10/26 02:13:01;;;;;;;8.02;4.32;;;14.40;99.90;;;;;;5050059;28;20033;-89
2022/10/26 02:15:36;;;;;;;3.78;3.45;;;14.30;99.90;;;;;;5066664;28;20104;-88
2022/10/26 02:18:24;;;;;;;6.32;3.90;;;14.30;99.90;;;;;;5031594;28;20029;-89
2022/10/26 02:20:56;;;;;;;6.38;3.67;;;14.30;99.90;;;;;;5034101;28;20052;-89
2022/10/26 02:23:25;;;;;;;5.10;3.83;;;14.30;99.90;;;;;;5046725;28;20033;-89
2022/10/26 02:25:55;;;;;;;5.07;3.30;;;14.30;99.90;;;;;;5049114;28;20040;-89
2022/10/26 02:28:26;;;;;;;4.57;2.75;;;14.30;99.90;;;;;;5066145;28;20492;-90
2022/10/26 02:30:56;;;;;;;3.80;3.50;;;14.30;99.90;;;;;;5066527;28;20044;-88
2022/10/26 02:33:23;;;;;;;;;;;14.30;99.90;;;;;;5066544;28;20542;-90
2022/10/26 02:35:51;;;;;;;3.78;3.22;;;14.30;99.90;;;;;;5066291;28;19913;-89
2022/10/26 02:38:19;;;;;;;5.57;3.92;;;14.30;99.90;;;;;;5067150;28;20032;-89
2022/10/26 02:40:49;;;;;;;3.67;3.38;;;14.30;99.90;;;;;;5049515;28;20024;-89
2022/10/26 02:43:20;;;;;;;4.38;3.42;;;14.20;99.90;;;;;;5067212;28;20052;-90
2022/10/26 02:46:06;;;;;;;4.15;3.13;;;14.20;99.90;;;;;;5065870;28;20036;-89
2022/10/26 02:48:32;;;;;;;4.10;2.70;;;14.30;99.90;;;;;;5065810;28;20035;-90
2022/10/26 02:51:07;;;;;;;5.78;2.90;;;14.20;99.90;;;;;;5066068;28;20124;-89
2022/10/26 02:53:47;;;;;;;2.90;2.50;;;14.30;99.90;;;;;;5065634;28;20051;-89
2022/10/26 02:56:16;;;;;;;;;;;14.20;99.90;;;;;;5049497;28;20029;-90
2022/10/26 02:58:46;;;;;;;5.13;2.88;;;14.20;99.90;;;;;;5066011;28;19958;-89
2022/10/26 03:01:13;;;;;;;2.70;2.50;;;14.20;99.90;;;;;;5049225;28;20039;-90
2022/10/26 03:03:39;;;;;;;4.78;2.97;;;14.20;99.90;;;;;;5082405;28;20048;-91
2022/10/26 03:06:05;;;;;;;3.20;2.90;;;14.20;99.90;;;;;;5066552;28;20029;-89
2022/10/26 03:08:30;;;;;;;3.80;3.40;;;14.20;99.90;;;;;;5065847;28;20053;-90
2022/10/26 03:10:56;;;;;;;8.23;2.88;;;14.20;99.90;;;;;;5048838;28;20033;-90
2022/10/26 03:13:22;;;;;;;6.38;3.20;;;14.20;99.90;;;;;;5066811;28;20037;-89
2022/10/26 03:15:48;;;;;;;5.40;2.90;;;14.20;99.90;;;;;;5065659;28;20494;-89
2022/10/26 03:18:14;;;;;;;2.17;1.90;;;14.20;99.90;;;;;;5065368;28;20021;-89
2022/10/26 03:20:43;;;;;;;6.50;2.85;;;14.20;99.90;;;;;;5065191;28;20048;-89
2022/10/26 03:23:09;;;;;;;3.13;2.55;;;14.20;99.90;;;;;;5048456;28;20033;-89
2022/10/26 03:25:35;;;;;;;2.92;2.60;;;14.20;99.90;;;;;;5065245;28;20035;-89
2022/10/26 03:28:02;;;;;;;2.72;2.30;;;14.20;99.90;;;;;;5065103;28;20061;-90
2022/10/26 03:30:30;;;;;;;5.30;3.28;;;14.20;99.90;;;;;;5048646;28;20048;-90
2022/10/26 03:32:56;;;;;;;10.15;2.63;;;14.10;99.90;;;;;;5048618;28;20037;-89
2022/10/26 03:35:22;;;;;;;3.85;2.47;;;14.20;99.90;;;;;;5031975;28;20036;-88
2022/10/26 03:37:48;;;;;;;2.60;2.42;;;14.10;99.90;;;;;;5064805;28;20017;-89
2022/10/26 03:40:14;;;;;;;3.72;2.42;;;14.10;99.90;;;;;;5066283;28;20031;-89
2022/10/26 03:42:40;;;;;;;9.15;2.78;;;14.10;99.90;;;;;;5064917;28;20479;-90
2022/10/26 03:45:07;;;;;;;5.22;2.08;;;14.10;99.90;;;;;;5048471;28;20028;-90
2022/10/26 03:47:33;;;;;;;3.17;2.50;;;14.10;99.90;;;;;;5031879;28;20398;-89
2022/10/26 03:49:59;;;;;;;5.22;3.17;;;14.10;99.90;;;;;;5066142;28;20033;-88
2022/10/26 03:52:25;;;;;;;4.05;3.53;;;14.10;99.90;;;;;;5048360;28;20036;-88
2022/10/26 03:54:51;;;;;;;2.30;2.10;;;14.10;99.90;;;;;;5064667;28;20029;-89
2022/10/26 03:57:17;;;;;;;3.75;2.28;;;14.10;99.90;;;;;;5044763;28;20060;-89
2022/10/26 03:59:43;;;;;;;3.47;2.67;;;14.10;99.90;;;;;;5031737;28;20025;-89
2022/10/26 04:02:10;;;;;;;4.63;2.03;;;14.10;99.90;;;;;;5064569;28;20037;-90
2022/10/26 04:04:36;;;;;;;3.53;1.75;;;14.10;99.90;;;;;;5064965;28;20044;-90
2022/10/26 04:07:02;;;;;;;4.50;2.88;;;14.10;99.90;;;;;;5048214;28;20060;-89
2022/10/26 04:09:28;;;;;;;4.57;3.72;;;14.10;99.90;;;;;;5064719;28;20041;-89
2022/10/26 04:11:53;;;;;;;4.95;2.65;;;14.10;99.90;;;;;;5048004;28;20040;-88
2022/10/26 04:14:19;;;;;;;4.90;2.50;;;14.10;99.90;;;;;;5065184;28;20096;-88
2022/10/26 04:16:45;;;;;;;2.65;2.45;;;14.10;99.90;;;;;;5044650;28;20022;-88
2022/10/26 04:19:11;;;;;;;8.10;2.42;;;14.10;99.90;;;;;;5045081;28;20033;-89
2022/10/26 04:21:37;;;;;;;5.97;2.53;;;14.10;99.90;;;;;;5045206;28;20033;-89
2022/10/26 04:24:03;;;;;;;3.50;2.97;;;14.00;99.90;;;;;;5049712;28;20034;-89
2022/10/26 04:26:29;;;;;;;7.10;1.90;;;14.10;99.90;;;;;;5050577;28;20025;-89
2022/10/26 04:28:54;;;;;;;6.07;2.15;;;14.00;99.90;;;;;;5062931;28;20056;-89
2022/10/26 04:31:20;;;;;;;7.63;2.67;;;14.10;99.90;;;;;;5066973;28;20173;-89
2022/10/26 04:33:46;;;;;;;3.22;2.97;;;14.10;99.90;;;;;;5061886;28;20036;-88
2022/10/26 04:36:12;;;;;;;3.88;1.95;;;14.00;99.90;;;;;;5053106;28;20048;-89
2022/10/26 04:38:37;;;;;;;1.63;1.48;;;14.10;99.90;;;;;;5053857;28;20029;-88
2022/10/26 04:41:03;;;;;;;5.47;2.63;;;14.10;99.90;;;;;;5059358;28;20092;-90
2022/10/26 04:43:30;;;;;;;3.22;2.05;;;;;;;;;;5061495;28;20024;-89
2022/10/26 04:45:56;;;;;;;5.32;2.42;;;14.10;99.90;;;;;;5061720;28;20036;-90
2022/10/26 04:48:23;;;;;;;5.40;3.08;;;14.00;99.90;;;;;;5065205;28;20029;-89
2022/10/26 04:50:49;;;;;;;2.80;2.58;;;;;;;;;;5055234;28;20032;-90
2022/10/26 04:53:15;;;;;;;3.60;1.83;;;14.00;99.90;;;;;;5042790;28;20060;-88
2022/10/26 04:55:42;;;;;;;1.92;1.67;;;;;;;;;;5061566;28;20029;-88
2022/10/26 04:58:08;;;;;;;3.75;2.20;;;;;;;;;;5057112;28;20035;-87
2022/10/26 05:00:34;;;;;;;9.90;2.17;;;14.00;99.90;;;;;;5043927;28;20022;-90
2022/10/26 05:03:07;;;;;;;2.38;2.22;;;14.10;99.90;;;;;;5041885;28;20076;-89
2022/10/26 05:05:35;;;;;;;6.22;2.28;;;14.00;99.90;;;;;;5052140;28;20059;-90
2022/10/26 05:08:01;;;;;;;2.45;2.25;;;;;;;;;;5048027;28;20081;-89
2022/10/26 05:10:28;;;;;;;3.08;1.98;;;;;;;;;;5060163;28;20030;-89
2022/10/26 05:12:55;;;;;;;7.60;2.25;;;14.00;99.90;;;;;;5061314;28;20029;-88
2022/10/26 05:15:21;;;;;;;6.25;2.28;;;;;;;;;;5049613;28;20029;-90
2022/10/26 05:17:47;;;;;;;1.70;1.60;;;;;;;;;;5043954;28;20036;-89
2022/10/26 05:20:14;;;;;;;3.30;2.15;;;14.00;99.90;;;;;;5064301;28;20096;-90
2022/10/26 05:22:40;;;;;;;8.50;2.75;;;;;;;;;;5044317;28;20032;-88
2022/10/26 05:25:07;;;;;;;2.42;1.77;;;14.00;99.90;;;;;;5036192;28;20033;-89
2022/10/26 05:27:33;;;;;;;2.35;2.08;;;;;;;;;;5047234;28;20025;-89
2022/10/26 05:29:59;;;;;;;2.50;1.70;;;;;;;;;;5041336;28;20025;-90
2022/10/26 05:32:25;;;;;;;5.65;2.97;;;;;;;;;;5053918;28;20117;-87
2022/10/26 05:34:51;;;;;;;3.70;1.92;;;14.00;99.90;;;;;;5049982;28;20033;-89
2022/10/26 05:37:17;;;;;;;6.68;2.15;;;14.00;99.90;;;;;;5057812;28;20076;-89
2022/10/26 05:39:43;;;;;;;8.15;2.88;;;14.00;99.90;;;;;;5047105;28;20056;-89
2022/10/26 05:42:09;;;;;;;4.88;2.47;;;;;;;;;;5070543;28;20052;-89
2022/10/26 05:44:35;;;;;;;9.65;2.42;;;;;;;;;;5074811;28;20028;-89
2022/10/26 05:47:00;;;;;;;1.45;1.27;;;13.90;99.90;;;;;;5053514;28;20036;-88
2022/10/26 05:49:26;;;;;;;2.17;1.95;;;13.90;99.90;;;;;;5071271;28;20025;-89
2022/10/26 05:51:52;;;;;;;4.50;2.42;;;13.90;99.90;;;;;;5067849;28;20040;-89
2022/10/26 05:54:18;;;;;;;2.80;1.02;;;;;;;;;;5037965;28;20471;-90
2022/10/26 05:56:45;;;;;;;2.90;2.70;;;;;;;;;;5060408;28;20111;-90
2022/10/26 05:59:13;;;;;;;3.17;1.55;;;14.00;99.90;;;;;;5074652;28;20029;-87
2022/10/26 06:01:53;;;;;;;2.60;1.92;;;13.90;99.90;;;;;;5054079;28;20021;-89
2022/10/26 06:04:36;;;;;;;2.78;1.95;;;13.90;99.90;;;;;;5051136;28;20053;-90
2022/10/26 06:07:03;;;;;;;1.65;1.38;;;;;;;;;;5036709;28;20043;-89
2022/10/26 06:09:28;;;;;;;4.57;2.03;;;14.00;99.90;;;;;;5050634;28;20097;-89
2022/10/26 06:11:54;;;;;;;2.38;2.10;;;14.00;99.90;;;;;;5053511;28;20030;-90
2022/10/26 06:14:20;;;;;;;3.33;1.73;;;13.90;99.90;;;;;;5034531;28;20032;-90
2022/10/26 06:17:05;;;;;;;2.83;1.40;;;13.90;99.90;;;;;;5051935;28;20407;-88
2022/10/26 06:19:40;;;;;;;1.63;1.50;;;13.90;99.90;;;;;;5044419;28;20029;-90
2022/10/26 06:22:36;;;;;;;2.25;2.03;;;13.90;99.90;;;;;;5053701;28;20026;-88
2022/10/26 06:25:24;;;;;;;3.55;1.83;;;13.90;99.90;;;;;;5042615;28;20032;-89
2022/10/26 06:28:16;;;;;;;2.63;1.70;;;14.00;99.90;;;;;;5053995;28;20026;-89
2022/10/26 06:30:42;;;;;;;1.90;1.67;;;;;;;;;;5041847;28;20114;-89
2022/10/26 06:33:11;;;;;;;1.27;1.17;;;13.90;99.90;;;;;;5057169;28;20029;-89
2022/10/26 06:35:40;;;;;;;2.40;1.80;;;13.90;99.90;;;;;;5046023;28;20022;-88
2022/10/26 06:38:33;;;;;;;2.97;2.05;;;13.90;99.90;;;;;;5048245;28;20040;-90
2022/10/26 06:41:03;;;;;;;5.90;2.38;;;13.90;99.90;;;;;;5048896;28;20067;-88
2022/10/26 06:43:32;;;;;;;2.83;1.50;;;13.90;99.90;;;;;;5063606;28;20444;-89
2022/10/26 06:45:59;;;;;;;1.95;1.25;;;;;;;;;;5066794;28;20029;-90
2022/10/26 06:48:28;;;;;;;6.88;1.92;;;13.90;99.90;;;;;;5049054;28;20020;-89
2022/10/26 06:50:54;;;;;;;8.00;3.22;;;13.90;99.90;;;;;;5065548;28;20540;-89
2022/10/26 06:53:34;;;;;;;5.70;2.08;;;13.90;99.90;;;;;;5071437;28;20083;-89
2022/10/26 06:56:01;;;;;;;1.10;1.05;;;13.90;99.90;;;;;;5069597;28;20024;-90
2022/10/26 06:58:36;;;;;;;1.60;1.50;;;13.90;99.90;;;;;;5052837;28;20052;-90
2022/10/26 07:01:02;;;;;;;2.70;1.65;;;13.90;99.90;;;;;;5049741;28;20021;-89
2022/10/26 07:03:28;;;;;;;6.68;2.15;;;13.90;99.90;;;;;;5053869;28;20056;-89
2022/10/26 07:05:54;;;;;;;2.95;1.42;;;13.90;99.90;;;;;;5048739;28;20094;-88
2022/10/26 07:08:20;;;;;;;1.30;1.20;;;13.90;99.90;;;;;;5048620;28;20025;-89
2022/10/26 07:10:46;;;;;;;2.25;1.63;;;13.90;99.90;;;;;;5048546;28;20068;-88
2022/10/26 07:13:12;;;;;;;3.00;1.67;;;13.90;99.90;;;;;;5079545;28;20044;-89
2022/10/26 07:15:39;;;;;;;8.05;2.80;;;13.90;99.90;;;;;;5048126;28;20094;-88
2022/10/26 07:18:06;;;;;;;3.28;1.75;;;13.90;99.90;;;;;;5048667;28;20056;-89
2022/10/26 07:20:37;;;;;;;2.00;1.73;;;13.90;99.90;;;;;;5047815;28;20079;-89
2022/10/26 07:23:05;;;;;;;5.97;2.55;;;13.90;99.90;;;;;;5071231;28;20112;-90
2022/10/26 07:25:32;;;;;;;18.13;3.17;;;13.90;99.90;;;;;;5054795;28;20096;-88
2022/10/26 07:27:59;;;;;;;4.63;1.50;;;13.90;99.90;;;;;;5063077;28;20017;-88
2022/10/26 07:30:29;;;;;;;1.83;1.73;;;13.90;99.90;;;;;;5048191;28;20036;-88
2022/10/26 07:33:03;;;;;;;1.98;1.77;;;13.90;99.90;;;;;;5048053;28;20036;-89
2022/10/26 07:35:30;;;;;;;3.03;2.28;;;;;;;;;;5064477;28;20172;-89
2022/10/26 07:37:57;;;;;;;8.95;1.67;;;13.80;99.90;;;;;;5050533;28;20048;-88
2022/10/26 07:40:23;;;;;;;7.30;3.70;;;;;;;;;;5058229;28;20551;-87
2022/10/26 07:42:50;;;;;;;3.63;1.83;;;;;;;;;;5071367;28;20032;-88
2022/10/26 07:45:15;;;;;;;6.05;2.80;;;13.90;99.90;;;;;;5054871;28;20028;-89
2022/10/26 07:47:42;;;;;;;4.70;2.95;;;;;;;;;;5047265;28;20128;-88
2022/10/26 07:50:10;;;;;;;5.65;2.03;;;13.90;99.90;;;;;;5047738;28;20033;-88
2022/10/26 07:52:37;;;;;;;2.25;2.03;;;13.90;99.90;;;;;;5064468;28;20037;-88
2022/10/26 07:55:04;;;;;;;4.18;2.47;;;13.90;99.90;;;;;;5047668;28;20025;-88
2022/10/26 07:57:30;;;;;;;3.95;2.28;;;;;;;;;;5065569;28;20088;-89
2022/10/26 07:59:57;;;;;;;4.68;2.58;;;13.90;99.90;;;;;;5064365;28;20658;-89
2022/10/26 08:02:23;;;;;;;2.05;1.95;;;13.90;99.90;;;;;;5044199;28;20136;-87
2022/10/26 08:04:49;;;;;;;4.13;2.25;;;14.00;99.90;;;;;;5056056;28;20091;-88
2022/10/26 08:07:15;;;;;;;4.28;2.35;;;14.00;99.90;;;;;;5047944;28;20028;-88
2022/10/26 08:09:42;;;;;;;4.30;1.98;;;;;;;;;;5050140;28;20465;-88
2022/10/26 08:12:07;;;;;;;2.63;2.30;;;14.00;99.90;;;;;;5068788;28;20033;-88
2022/10/26 08:14:33;;;;;;;5.55;1.85;;;14.00;99.90;;;;;;5069171;28;20055;-89
2022/10/26 08:16:59;;;;;;;3.13;2.30;;;14.10;99.90;;;;;;5052721;28;20120;-88
2022/10/26 08:19:25;;;;;;;3.10;1.70;;;14.10;99.90;;;;;;5068948;28;20032;-90
2022/10/26 08:21:50;;;;;;;3.20;1.60;;;14.10;99.90;;;;;;5043212;28;20100;-89
2022/10/26 08:24:23;;;;;;;2.10;2.00;;;14.10;99.90;;;;;;5055506;28;20036;-88
2022/10/26 08:26:49;;;;;;;2.88;2.15;;;14.10;99.90;;;;;;5050142;28;20494;-87
2022/10/26 08:29:15;;;;;;;1.73;1.60;;;14.20;99.90;;;;;;5036439;28;20033;-86
2022/10/26 08:31:41;;;;;;;16.10;2.22;;;14.20;99.90;;;;;;5051443;28;20121;-87
2022/10/26 08:34:06;;;;;;;6.88;2.03;;;14.20;99.90;;;;;;5069133;28;20033;-86
2022/10/26 08:36:32;;;;;;;2.72;1.92;;;14.20;99.90;;;;;;5050854;28;20029;-87
2022/10/26 08:38:58;;;;;;;5.95;2.25;;;14.20;99.90;;;;;;5067977;28;20040;-87
2022/10/26 08:41:37;;;;;;;2.17;1.88;;;14.30;99.90;;;;;;5069230;28;20067;-87
2022/10/26 08:44:16;;;;;;;3.42;2.42;;;14.40;99.90;;;;;;5067465;28;20115;-86
2022/10/26 08:46:46;;;;;;;2.63;1.63;;;14.40;99.90;;;;;;5069269;28;20056;-87
2022/10/26 08:49:25;;;;;;;1.85;1.40;;;14.40;99.90;;;;;;5067948;28;20029;-86
2022/10/26 08:51:56;;;;;;;2.80;2.03;;;14.50;99.90;;;;;;5066984;28;20040;-87
2022/10/26 08:54:36;;;;;;;1.73;1.27;;;14.50;99.90;;;;;;5056595;28;20059;-87
2022/10/26 08:57:21;;;;;;;2.75;1.55;;;14.50;99.90;;;;;;5067723;28;20021;-87
2022/10/26 08:59:59;;;;;;;4.15;2.08;;;14.50;99.90;;;;;;5067174;28;20029;-87
2022/10/26 09:02:25;;;;;;;7.10;2.83;;;14.60;99.90;;;;;;5066817;28;20045;-87
2022/10/26 09:04:52;;;;;;;5.22;2.08;;;14.60;99.90;;;;;;5067566;28;20040;-87
2022/10/26 09:07:48;;;;;;;3.67;2.38;;;14.70;99.90;;;;;;5067651;28;20977;-87
2022/10/26 09:10:35;;;;;;;8.02;2.10;;;14.70;99.90;;;;;;5065134;28;20041;-87
2022/10/26 09:13:16;;;;;;;3.65;1.85;;;14.80;99.90;;;;;;5048728;28;20029;-87
2022/10/26 09:15:56;;;;;;;2.97;1.88;;;14.80;99.90;;;;;;5047476;28;20029;-88
2022/10/26 09:18:50;;;;;;;4.05;2.65;;;14.90;99.90;;;;;;5048717;28;20388;-87
2022/10/26 09:21:34;;;;;;;1.83;1.73;;;15.00;99.90;;;;;;5052005;28;20021;-87
2022/10/26 09:24:13;;;;;;;7.13;1.70;;;15.10;99.90;;;;;;5067340;28;20471;-88
2022/10/26 09:27:17;;;;;;;1.85;1.65;;;15.20;99.90;;;;;;5067229;28;20055;-87
2022/10/26 09:29:43;;;;;;;4.60;2.05;;;15.20;99.90;;;;;;5068477;28;20360;-87
2022/10/26 09:32:24;;;;;;;5.80;2.65;;;15.40;99.90;;;;;;5050297;28;20021;-87
2022/10/26 09:34:53;;;;;;;5.05;2.30;;;15.50;99.90;;;;;;5066635;28;20097;-87
2022/10/26 09:37:27;;;;;;;3.95;1.90;;;15.60;99.90;;;;;;5083792;28;20052;-88
2022/10/26 09:40:17;;;;;;;8.35;2.75;;;15.70;99.90;;;;;;5067285;28;20064;-88
2022/10/26 09:42:54;;;;;;;5.63;2.05;;;15.90;99.90;;;;;;5066995;28;20029;-88
2022/10/26 09:45:30;;;;;;;8.05;2.22;;;16.00;99.90;;;;;;5049174;28;20040;-88
2022/10/26 09:48:03;;;;;;;2.35;1.42;;;16.00;99.90;;;;;;5048485;28;20041;-88
2022/10/26 09:50:33;;;;;;;5.45;2.00;;;16.10;99.90;;;;;;5046917;28;20045;-88
2022/10/26 09:52:59;;;;;;;3.17;1.80;;;16.10;99.90;;;;;;5039878;28;20064;-88
2022/10/26 09:55:26;;;;;;;9.73;1.80;;;16.20;99.90;;;;;;5048136;28;20021;-88
2022/10/26 09:57:55;;;;;;;1.60;0.93;;;16.20;99.90;;;;;;5063271;28;20049;-88
2022/10/26 10:00:24;;;;;;;2.63;1.65;;;16.20;99.90;;;;;;5049775;28;20496;-88
2022/10/26 10:02:52;;;;;;;2.97;1.92;;;16.10;99.90;;;;;;5049819;28;20052;-88
2022/10/26 10:05:28;;;;;;;4.65;1.77;;;16.20;99.90;;;;;;5066438;28;20029;-88
2022/10/26 10:08:18;;;;;;;1.33;1.23;;;16.20;99.90;;;;;;5066554;28;20029;-87
2022/10/26 10:10:58;;;;;;;1.90;1.15;;;16.10;99.90;;;;;;5067858;28;20044;-88
2022/10/26 10:13:27;;;;;;;2.28;0.95;;;16.20;99.90;;;;;;5066057;28;20040;-88
2022/10/26 10:16:02;;;;;;;1.85;1.40;;;16.30;99.90;;;;;;5067226;28;20109;-88
2022/10/26 10:18:28;;;;;;;3.53;1.88;;;16.30;99.90;;;;;;5067282;28;20047;-88
2022/10/26 10:20:57;;;;;;;2.22;2.08;;;16.40;99.90;;;;;;5049869;28;20387;-88
2022/10/26 10:23:32;;;;;;;3.15;1.75;;;16.50;99.90;;;;;;5065779;28;20085;-88
2022/10/26 10:26:03;;;;;;;1.00;1.00;;;16.50;99.90;;;;;;5049568;28;20490;-88
2022/10/26 10:28:29;;;;;;;2.72;1.80;;;16.50;99.90;;;;;;5066171;28;20040;-88
2022/10/26 10:31:01;;;;;;;2.10;1.77;;;16.60;99.90;;;;;;5067054;28;20029;-88
2022/10/26 10:33:37;;;;;;;8.60;2.40;;;16.60;99.90;;;;;;5064911;28;20044;-88
2022/10/26 10:36:07;;;;;;;1.67;1.58;;;16.60;99.90;;;;;;5065997;28;20025;-89
2022/10/26 10:38:37;;;;;;;;;;;16.70;99.90;;;;;;5067073;28;20021;-88
2022/10/26 10:41:04;;;;;;;2.00;1.48;;;16.80;99.90;;;;;;5066135;28;20003;-89
2022/10/26 10:43:30;;;;;;;1.77;1.10;;;16.90;99.90;;;;;;5074974;28;20448;-87
2022/10/26 10:45:58;;;;;;;3.70;1.63;;;16.90;99.90;;;;;;5045918;28;20040;-88
2022/10/26 10:48:28;;;;;;;1.70;1.38;;;17.00;99.90;;;;;;5045909;28;20063;-89
2022/10/26 10:51:01;;;;;;;;;;;17.00;99.90;;;;;;5046027;28;20048;-89
2022/10/26 10:53:55;;;;;;;1.88;1.15;;;17.10;99.90;;;;;;5061618;28;19913;-88
2022/10/26 10:56:39;;;;;;;4.00;1.63;;;17.10;99.90;;;;;;5052056;28;20041;-89
2022/10/26 10:59:24;;;;;;;2.17;1.67;;;17.10;99.90;;;;;;5048928;28;20024;-88
2022/10/26 11:02:21;;;;;;;10.02;1.95;;;17.10;99.90;;;;;;5045406;28;20407;-89
2022/10/26 11:04:47;;;;;;;3.33;1.50;;;17.20;99.90;;;;;;5036822;28;20040;-89
2022/10/26 11:07:16;;;;;;;3.15;1.20;;;17.20;99.90;;;;;;5065696;28;20025;-89
2022/10/26 11:09:44;;;;;;;1.65;1.52;;;17.20;99.90;;;;;;5048903;28;20029;-89
2022/10/26 11:12:30;;;;;;;2.67;1.23;;;17.10;99.90;;;;;;5065341;28;20163;-89
2022/10/26 11:15:06;;;;;;;4.72;1.85;;;17.00;99.90;;;;;;5046888;28;20033;-89
2022/10/26 11:17:59;;;;;;;4.65;1.63;;;17.00;99.90;;;;;;5045488;28;20044;-89
2022/10/26 11:20:28;;;;;;;2.80;1.60;;;17.10;99.90;;;;;;5045379;28;20036;-89
2022/10/26 11:23:16;;;;;;;1.67;1.15;;;17.10;99.90;;;;;;5051800;28;20017;-89
2022/10/26 11:25:54;;;;;;;8.15;1.45;;;17.20;99.90;;;;;;5066522;28;20033;-89
2022/10/26 11:28:47;;;;;;;3.63;1.40;;;17.20;99.90;;;;;;5065106;28;20025;-89
2022/10/26 11:31:24;;;;;;;1.40;1.13;;;17.30;99.90;;;;;;5045629;28;20153;-89
2022/10/26 11:34:19;;;;;;;3.03;1.90;;;17.30;99.90;;;;;;5047796;28;20078;-89
2022/10/26 11:36:50;;;;;;;4.57;1.35;;;17.40;99.90;;;;;;5047976;28;20021;-87
2022/10/26 11:39:24;;;;;;;1.77;1.60;;;17.40;99.90;;;;;;5065012;28;20075;-89
2022/10/26 11:42:06;;;;;;;4.90;1.85;;;17.40;99.90;;;;;;5048442;28;20090;-89
2022/10/26 11:44:47;;;;;;;10.20;1.73;;;17.30;99.90;;;;;;5044394;28;20055;-89
2022/10/26 11:47:17;;;;;;;1.73;1.35;;;17.30;99.90;;;;;;5061706;28;20029;-89
2022/10/26 11:49:52;;;;;;;1.60;1.00;;;17.30;99.90;;;;;;5061500;28;20022;-90
2022/10/26 11:52:42;;;;;;;2.40;1.33;;;17.30;99.90;;;;;;5046105;28;20026;-89
2022/10/26 11:55:10;;;;;;;3.42;1.27;;;17.30;99.90;;;;;;5040544;28;20093;-89
2022/10/26 11:57:36;;;;;;;1.13;1.02;;;17.30;99.90;;;;;;5045712;28;20037;-88
2022/10/26 12:00:13;;;;;;;2.00;0.88;;;17.40;99.90;;;;;;5061318;28;20025;-89
2022/10/26 12:03:03;;;;;;;2.33;0.80;;;17.50;99.90;;;;;;5064175;28;20053;-89
2022/10/26 12:05:31;;;;;;;1.48;1.13;;;17.50;99.90;;;;;;5061012;28;20106;-90
2022/10/26 12:08:02;;;;;;;1.60;1.17;;;17.60;99.90;;;;;;5048002;28;20032;-89
2022/10/26 12:10:31;;;;;;;1.33;0.82;;;17.70;99.90;;;;;;5064433;28;20032;-89
2022/10/26 12:13:15;;;;;;;1.88;1.42;;;17.80;99.90;;;;;;5044475;28;20085;-89
2022/10/26 12:15:43;;;;;;;2.40;0.90;;;17.90;99.90;;;;;;5044981;28;20514;-89
2022/10/26 12:18:38;;;;;;;1.85;1.23;;;17.90;99.90;;;;;;5044577;28;20037;-89
2022/10/26 12:21:06;;;;;;;1.30;1.20;;;18.00;99.90;;;;;;5044612;28;20026;-89
2022/10/26 12:23:57;;;;;;;2.05;1.17;;;18.10;99.90;;;;;;5053197;28;20029;-89
2022/10/26 12:26:22;;;;;;;1.77;1.10;;;18.10;99.90;;;;;;5064413;28;20029;-88
2022/10/26 12:29:08;;;;;;;4.43;2.08;;;18.10;99.90;;;;;;5064438;28;20083;-89
2022/10/26 12:31:37;;;;;;;1.48;1.13;;;18.10;99.90;;;;;;5065656;28;20041;-89
2022/10/26 12:34:09;;;;;;;4.80;1.33;;;18.20;99.90;;;;;;5064126;28;20505;-89
2022/10/26 12:36:53;;;;;;;2.05;1.27;;;18.30;99.90;;;;;;5064378;28;20033;-89
2022/10/26 12:39:39;;;;;;;1.30;1.15;;;18.30;99.90;;;;;;5064311;28;20044;-89
2022/10/26 12:42:05;;;;;;;1.23;1.02;;;18.40;99.90;;;;;;5064586;28;20028;-90
2022/10/26 12:44:41;;;;;;;2.50;0.93;;;18.40;99.90;;;;;;5063716;28;20043;-89
2022/10/26 12:47:09;;;;;;;3.35;0.90;;;18.40;99.90;;;;;;5064311;28;20040;-89
2022/10/26 12:50:14;;;;;;;6.13;0.82;;;18.40;99.90;;;;;;5048594;28;20020;-89
2022/10/26 12:53:09;;;;;;;2.08;1.20;;;18.50;99.90;;;;;;5065342;28;20064;-89
2022/10/26 12:55:49;;;;;;;4.40;1.17;;;18.60;99.90;;;;;;5052358;28;20021;-89
2022/10/26 12:58:40;;;;;;;1.42;1.10;;;18.50;99.90;;;;;;5067965;28;20036;-89
2022/10/26 13:01:06;;;;;;;0.73;0.73;;;18.50;99.90;;;;;;5067857;28;20021;-89
2022/10/26 13:03:44;;;;;;;2.13;0.70;;;18.50;99.90;;;;;;5067366;28;20411;-89
2022/10/26 13:06:16;;;;;;;0.90;0.90;;;18.40;99.90;;;;;;5068223;28;20100;-89
2022/10/26 13:08:54;;;;;;;2.53;1.33;;;18.50;99.90;;;;;;5067640;28;20100;-89
2022/10/26 13:11:31;;;;;;;1.60;0.95;;;18.50;99.90;;;;;;5051172;28;20390;-89
2022/10/26 13:14:28;;;;;;;1.13;0.88;;;18.50;99.90;;;;;;5067331;28;20037;-89
2022/10/26 13:16:54;;;;;;;3.33;0.95;;;18.50;99.90;;;;;;5065855;28;20048;-89
2022/10/26 13:19:38;;;;;;;1.45;0.80;;;18.50;99.90;;;;;;5067620;28;20017;-89